sensor_id;sensor_type;location;lat;lon;timestamp;pressure;altitude;pressure_sealevel;temperature;humidity
11172;BME280;5642;50.830;12.082;2024-03-22T00:00:24;100063.28;;;11.51;40.88
11172;BME280;5642;50.830;12.082;2024-03-22T00:02:52;100063.47;;;11.43;41.05
11172;BME280;5642;50.830;12.082;2024-03-22T00:05:23;100043.75;;;11.27;40.73
11172;BME280;5642;50.830;12.082;2024-03-22T00:07:50;100070.63;;;11.36;40.88
11172;BME280;5642;50.830;12.082;2024-03-22T00:10:19;100069.91;;;11.30;40.90
11172;BME280;5642;50.830;12.082;2024-03-22T00:12:49;100065.69;;;11.23;41.00
11172;BME280;5642;50.830;12.082;2024-03-22T00:15:17;100055.59;;;11.08;41.47
11172;BME280;5642;50.830;12.082;2024-03-22T00:17:45;100064.41;;;11.04;41.07
11172;BME280;5642;50.830;12.082;2024-03-22T00:20:12;100029.25;;;10.75;41.23
11172;BME280;5642;50.830;12.082;2024-03-22T00:22:41;100065.72;;;10.86;41.67
11172;BME280;5642;50.830;12.082;2024-03-22T00:25:12;100032.16;;;10.62;41.46
11172;BME280;5642;50.830;12.082;2024-03-22T00:27:38;100028.97;;;10.49;41.46
11172;BME280;5642;50.830;12.082;2024-03-22T00:30:05;100066.22;;;10.62;41.47
11172;BME280;5642;50.830;12.082;2024-03-22T00:32:32;100066.47;;;10.51;41.51
11172;BME280;5642;50.830;12.082;2024-03-22T00:34:59;100052.81;;;10.35;41.80
11172;BME280;5642;50.830;12.082;2024-03-22T00:37:30;100039.19;;;10.18;41.30
11172;BME280;5642;50.830;12.082;2024-03-22T00:40:00;99984.88;;;9.83;41.69
11172;BME280;5642;50.830;12.082;2024-03-22T00:42:27;100049.72;;;10.15;41.72
11172;BME280;5642;50.830;12.082;2024-03-22T00:44:56;100046.25;;;10.11;41.68
11172;BME280;5642;50.830;12.082;2024-03-22T00:47:25;100050.81;;;10.02;41.86
11172;BME280;5642;50.830;12.082;2024-03-22T00:50:01;99959.50;;;9.42;41.72
11172;BME280;5642;50.830;12.082;2024-03-22T00:52:30;100058.78;;;9.96;41.62
11172;BME280;5642;50.830;12.082;2024-03-22T00:54:57;100001.09;;;9.56;41.71
11172;BME280;5642;50.830;12.082;2024-03-22T00:57:25;100026.88;;;9.75;41.98
11172;BME280;5642;50.830;12.082;2024-03-22T00:59:55;100031.34;;;9.72;41.99
11172;BME280;5642;50.830;12.082;2024-03-22T01:02:21;100034.75;;;9.75;41.73
11172;BME280;5642;50.830;12.082;2024-03-22T01:04:54;100032.25;;;9.69;41.84
11172;BME280;5642;50.830;12.082;2024-03-22T01:07:23;99991.03;;;9.34;41.91
11172;BME280;5642;50.830;12.082;2024-03-22T01:09:51;99978.13;;;9.24;41.98
11172;BME280;5642;50.830;12.082;2024-03-22T01:12:18;100033.56;;;9.44;41.99
11172;BME280;5642;50.830;12.082;2024-03-22T01:14:45;99967.13;;;9.03;42.19
11172;BME280;5642;50.830;12.082;2024-03-22T01:17:12;100030.22;;;9.34;42.25
11172;BME280;5642;50.830;12.082;2024-03-22T01:19:42;100025.91;;;9.32;42.10
11172;BME280;5642;50.830;12.082;2024-03-22T01:22:08;100012.91;;;9.29;42.03
11172;BME280;5642;50.830;12.082;2024-03-22T01:24:37;100010.28;;;9.29;41.86
11172;BME280;5642;50.830;12.082;2024-03-22T01:27:05;100007.69;;;9.29;41.91
11172;BME280;5642;50.830;12.082;2024-03-22T01:29:31;100006.81;;;9.28;42.29
11172;BME280;5642;50.830;12.082;2024-03-22T01:31:58;100003.25;;;9.31;42.21
11172;BME280;5642;50.830;12.082;2024-03-22T01:34:25;99904.88;;;8.76;42.15
11172;BME280;5642;50.830;12.082;2024-03-22T01:36:53;99963.41;;;9.18;42.01
11172;BME280;5642;50.830;12.082;2024-03-22T01:39:21;99976.22;;;9.32;42.28
11172;BME280;5642;50.830;12.082;2024-03-22T01:41:57;99963.03;;;9.39;42.01
11172;BME280;5642;50.830;12.082;2024-03-22T01:44:27;99928.28;;;9.33;41.80
11172;BME280;5642;50.830;12.082;2024-03-22T01:46:54;99983.44;;;9.67;41.67
11172;BME280;5642;50.830;12.082;2024-03-22T01:49:20;99959.16;;;9.60;41.94
11172;BME280;5642;50.830;12.082;2024-03-22T01:51:50;99975.50;;;9.73;41.71
11172;BME280;5642;50.830;12.082;2024-03-22T01:54:20;99973.63;;;9.79;41.52
11172;BME280;5642;50.830;12.082;2024-03-22T01:56:48;99922.63;;;9.57;41.94
11172;BME280;5642;50.830;12.082;2024-03-22T01:59:17;99963.94;;;9.83;41.70
11172;BME280;5642;50.830;12.082;2024-03-22T02:01:46;99962.19;;;9.85;41.70
11172;BME280;5642;50.830;12.082;2024-03-22T02:04:18;99938.63;;;9.85;41.77
11172;BME280;5642;50.830;12.082;2024-03-22T02:06:46;99936.00;;;9.87;41.82
11172;BME280;5642;50.830;12.082;2024-03-22T02:09:15;99931.50;;;9.93;41.74
11172;BME280;5642;50.830;12.082;2024-03-22T02:11:44;99933.03;;;10.02;41.58
11172;BME280;5642;50.830;12.082;2024-03-22T02:14:16;99939.03;;;10.08;41.78
11172;BME280;5642;50.830;12.082;2024-03-22T02:16:46;99899.34;;;9.87;41.86
11172;BME280;5642;50.830;12.082;2024-03-22T02:19:11;99921.72;;;10.01;41.83
11172;BME280;5642;50.830;12.082;2024-03-22T02:21:39;99930.16;;;10.14;41.55
11172;BME280;5642;50.830;12.082;2024-03-22T02:24:05;99873.22;;;9.85;41.49
11172;BME280;5642;50.830;12.082;2024-03-22T02:26:32;99902.28;;;10.11;41.91
11172;BME280;5642;50.830;12.082;2024-03-22T02:28:59;99846.50;;;9.69;41.55
11172;BME280;5642;50.830;12.082;2024-03-22T02:31:26;99894.69;;;10.01;41.84
11172;BME280;5642;50.830;12.082;2024-03-22T02:34:01;99891.38;;;9.93;41.96
11172;BME280;5642;50.830;12.082;2024-03-22T02:36:29;99900.94;;;9.94;42.19
11172;BME280;5642;50.830;12.082;2024-03-22T02:38:56;99888.94;;;9.83;41.85
11172;BME280;5642;50.830;12.082;2024-03-22T02:41:26;99898.56;;;9.81;42.17
11172;BME280;5642;50.830;12.082;2024-03-22T02:43:52;99884.09;;;9.65;42.25
11172;BME280;5642;50.830;12.082;2024-03-22T02:46:24;99871.22;;;9.55;42.20
11172;BME280;5642;50.830;12.082;2024-03-22T02:48:52;99873.91;;;9.52;42.51
11172;BME280;5642;50.830;12.082;2024-03-22T02:51:20;99874.00;;;9.47;42.54
11172;BME280;5642;50.830;12.082;2024-03-22T02:53:49;99892.28;;;9.47;42.30
11172;BME280;5642;50.830;12.082;2024-03-22T02:56:17;99907.09;;;9.48;42.35
11172;BME280;5642;50.830;12.082;2024-03-22T02:58:43;99898.47;;;9.45;42.48
11172;BME280;5642;50.830;12.082;2024-03-22T03:01:12;99900.09;;;9.50;42.57
11172;BME280;5642;50.830;12.082;2024-03-22T03:03:42;99831.03;;;9.16;42.35
11172;BME280;5642;50.830;12.082;2024-03-22T03:06:10;99890.34;;;9.58;42.47
11172;BME280;5642;50.830;12.082;2024-03-22T03:08:40;99831.69;;;9.27;42.33
11172;BME280;5642;50.830;12.082;2024-03-22T03:11:06;99897.09;;;9.68;42.23
11172;BME280;5642;50.830;12.082;2024-03-22T03:13:36;99860.78;;;9.53;42.37
11172;BME280;5642;50.830;12.082;2024-03-22T03:16:04;99892.56;;;9.78;42.14
11172;BME280;5642;50.830;12.082;2024-03-22T03:18:31;99894.19;;;9.82;42.23
11172;BME280;5642;50.830;12.082;2024-03-22T03:20:57;99886.28;;;9.85;42.16
11172;BME280;5642;50.830;12.082;2024-03-22T03:23:23;99835.41;;;9.58;42.32
11172;BME280;5642;50.830;12.082;2024-03-22T03:25:53;99886.13;;;9.93;42.37
11172;BME280;5642;50.830;12.082;2024-03-22T03:28:21;99884.38;;;9.93;42.29
11172;BME280;5642;50.830;12.082;2024-03-22T03:30:48;99891.25;;;9.99;41.95
11172;BME280;5642;50.830;12.082;2024-03-22T03:33:14;99824.81;;;9.66;42.11
11172;BME280;5642;50.830;12.082;2024-03-22T03:35:48;99865.13;;;9.96;42.10
11172;BME280;5642;50.830;12.082;2024-03-22T03:38:19;99862.41;;;10.00;42.05
11172;BME280;5642;50.830;12.082;2024-03-22T03:40:49;99869.13;;;10.12;42.33
11172;BME280;5642;50.830;12.082;2024-03-22T03:43:18;99861.28;;;10.12;42.02
11172;BME280;5642;50.830;12.082;2024-03-22T03:45:44;99867.25;;;10.20;42.14
11172;BME280;5642;50.830;12.082;2024-03-22T03:48:12;99859.38;;;10.20;42.04
11172;BME280;5642;50.830;12.082;2024-03-22T03:50:39;99860.97;;;10.27;42.01
11172;BME280;5642;50.830;12.082;2024-03-22T03:53:06;99855.63;;;10.30;41.93
11172;BME280;5642;50.830;12.082;2024-03-22T03:55:38;99859.00;;;10.37;42.16
11172;BME280;5642;50.830;12.082;2024-03-22T03:58:08;99866.69;;;10.44;42.10
11172;BME280;5642;50.830;12.082;2024-03-22T04:00:35;99795.06;;;10.08;41.94
11172;BME280;5642;50.830;12.082;2024-03-22T04:03:02;99800.97;;;10.18;41.87
11172;BME280;5642;50.830;12.082;2024-03-22T04:05:31;99808.59;;;10.27;42.07
11172;BME280;5642;50.830;12.082;2024-03-22T04:07:58;99787.69;;;10.26;41.96
11172;BME280;5642;50.830;12.082;2024-03-22T04:10:24;99790.28;;;10.27;41.98
11172;BME280;5642;50.830;12.082;2024-03-22T04:12:55;99839.16;;;10.62;42.13
11172;BME280;5642;50.830;12.082;2024-03-22T04:15:22;99841.75;;;10.64;42.01
11172;BME280;5642;50.830;12.082;2024-03-22T04:17:50;99802.88;;;10.47;42.14
11172;BME280;5642;50.830;12.082;2024-03-22T04:20:19;99796.91;;;10.42;41.99
11172;BME280;5642;50.830;12.082;2024-03-22T04:22:47;99766.63;;;10.30;42.15
11172;BME280;5642;50.830;12.082;2024-03-22T04:25:20;99833.69;;;10.73;42.22
11172;BME280;5642;50.830;12.082;2024-03-22T04:27:48;99826.91;;;10.64;42.12
11172;BME280;5642;50.830;12.082;2024-03-22T04:30:15;99813.91;;;10.59;42.27
11172;BME280;5642;50.830;12.082;2024-03-22T04:32:46;99831.16;;;10.68;42.29
11172;BME280;5642;50.830;12.082;2024-03-22T04:35:24;99822.53;;;10.65;42.22
11172;BME280;5642;50.830;12.082;2024-03-22T04:37:52;99810.41;;;10.59;41.99
11172;BME280;5642;50.830;12.082;2024-03-22T04:40:20;99782.03;;;10.42;42.10
11172;BME280;5642;50.830;12.082;2024-03-22T04:42:47;99827.59;;;10.71;42.16
11172;BME280;5642;50.830;12.082;2024-03-22T04:45:16;99816.28;;;10.69;42.12
11172;BME280;5642;50.830;12.082;2024-03-22T04:47:42;99758.72;;;10.32;42.34
11172;BME280;5642;50.830;12.082;2024-03-22T04:50:11;99814.59;;;10.66;42.26
11172;BME280;5642;50.830;12.082;2024-03-22T04:52:46;99821.75;;;10.59;42.37
11172;BME280;5642;50.830;12.082;2024-03-22T04:55:15;99819.13;;;10.59;42.36
11172;BME280;5642;50.830;12.082;2024-03-22T04:57:42;99811.56;;;10.49;42.54
11172;BME280;5642;50.830;12.082;2024-03-22T05:00:08;99801.25;;;10.43;42.40
11172;BME280;5642;50.830;12.082;2024-03-22T05:02:36;99816.78;;;10.50;42.43
11172;BME280;5642;50.830;12.082;2024-03-22T05:05:02;99784.00;;;10.34;42.38
11172;BME280;5642;50.830;12.082;2024-03-22T05:07:31;99715.97;;;9.96;42.50
11172;BME280;5642;50.830;12.082;2024-03-22T05:09:58;99744.31;;;10.14;42.34
11172;BME280;5642;50.830;12.082;2024-03-22T05:12:26;99789.88;;;10.44;42.47
11172;BME280;5642;50.830;12.082;2024-03-22T05:14:54;99745.75;;;10.27;42.45
11172;BME280;5642;50.830;12.082;2024-03-22T05:17:21;99750.16;;;10.25;42.38
11172;BME280;5642;50.830;12.082;2024-03-22T05:19:48;99800.53;;;10.70;42.42
11172;BME280;5642;50.830;12.082;2024-03-22T05:22:16;99788.22;;;10.74;42.58
11172;BME280;5642;50.830;12.082;2024-03-22T05:24:42;99774.13;;;10.78;42.43
11172;BME280;5642;50.830;12.082;2024-03-22T05:27:10;99733.44;;;10.65;42.39
11172;BME280;5642;50.830;12.082;2024-03-22T05:29:38;99765.97;;;10.88;42.34
11172;BME280;5642;50.830;12.082;2024-03-22T05:32:19;99767.66;;;10.91;42.43
11172;BME280;5642;50.830;12.082;2024-03-22T05:34:47;99728.88;;;10.73;42.28
11172;BME280;5642;50.830;12.082;2024-03-22T05:37:15;99695.81;;;10.67;42.15
11172;BME280;5642;50.830;12.082;2024-03-22T05:39:44;99729.06;;;10.96;42.32
11172;BME280;5642;50.830;12.082;2024-03-22T05:42:13;99695.41;;;10.82;42.48
11172;BME280;5642;50.830;12.082;2024-03-22T05:44:44;99726.28;;;11.02;42.26
11172;BME280;5642;50.830;12.082;2024-03-22T05:47:11;99663.25;;;10.76;42.25
11172;BME280;5642;50.830;12.082;2024-03-22T05:49:40;99655.41;;;10.76;42.51
11172;BME280;5642;50.830;12.082;2024-03-22T05:52:10;99632.00;;;10.70;42.63
11172;BME280;5642;50.830;12.082;2024-03-22T05:54:38;99646.22;;;10.92;42.46
11172;BME280;5642;50.830;12.082;2024-03-22T05:57:05;99661.25;;;11.15;42.47
11172;BME280;5642;50.830;12.082;2024-03-22T05:59:32;99669.56;;;11.29;42.10
11172;BME280;5642;50.830;12.082;2024-03-22T06:02:01;99609.19;;;11.03;42.16
11172;BME280;5642;50.830;12.082;2024-03-22T06:04:28;99632.00;;;11.28;42.06
11172;BME280;5642;50.830;12.082;2024-03-22T06:07:07;99658.97;;;11.60;42.31
11172;BME280;5642;50.830;12.082;2024-03-22T06:09:35;99653.53;;;11.66;41.98
11172;BME280;5642;50.830;12.082;2024-03-22T06:12:13;99630.00;;;11.64;42.18
11172;BME280;5642;50.830;12.082;2024-03-22T06:14:41;99704.38;;;12.18;42.04
11172;BME280;5642;50.830;12.082;2024-03-22T06:17:12;99658.47;;;12.03;41.88
11172;BME280;5642;50.830;12.082;2024-03-22T06:19:39;99629.72;;;12.00;41.82
11172;BME280;5642;50.830;12.082;2024-03-22T06:22:07;99685.84;;;12.47;41.75
11172;BME280;5642;50.830;12.082;2024-03-22T06:24:47;99687.72;;;12.68;41.43
11172;BME280;5642;50.830;12.082;2024-03-22T06:27:16;99656.81;;;12.75;41.33
11172;BME280;5642;50.830;12.082;2024-03-22T06:29:46;99622.31;;;12.84;41.13
11172;BME280;5642;50.830;12.082;2024-03-22T06:32:26;99679.09;;;13.58;40.86
11172;BME280;5642;50.830;12.082;2024-03-22T06:34:54;99620.63;;;13.71;40.56
11172;BME280;5642;50.830;12.082;2024-03-22T06:37:36;99644.69;;;14.06;40.46
11172;BME280;5642;50.830;12.082;2024-03-22T06:40:07;99719.63;;;14.61;40.46
11172;BME280;5642;50.830;12.082;2024-03-22T06:45:15;99723.34;;;14.77;40.46
11172;BME280;5642;50.830;12.082;2024-03-22T06:47:43;99648.53;;;14.39;40.54
11172;BME280;5642;50.830;12.082;2024-03-22T06:50:13;99625.81;;;14.35;40.50
11172;BME280;5642;50.830;12.082;2024-03-22T06:52:40;99637.44;;;14.52;40.50
11172;BME280;5642;50.830;12.082;2024-03-22T06:55:07;99697.28;;;14.90;40.57
11172;BME280;5642;50.830;12.082;2024-03-22T06:57:37;99627.06;;;14.48;40.49
11172;BME280;5642;50.830;12.082;2024-03-22T07:00:06;99617.50;;;14.46;40.64
11172;BME280;5642;50.830;12.082;2024-03-22T07:02:44;99646.25;;;14.71;40.59
11172;BME280;5642;50.830;12.082;2024-03-22T07:05:16;99635.69;;;14.71;40.52
11172;BME280;5642;50.830;12.082;2024-03-22T07:07:50;99617.34;;;14.69;40.42
11172;BME280;5642;50.830;12.082;2024-03-22T07:10:24;99638.97;;;14.96;40.50
11172;BME280;5642;50.830;12.082;2024-03-22T07:13:09;99675.41;;;15.44;40.08
11172;BME280;5642;50.830;12.082;2024-03-22T07:16:05;99702.44;;;15.87;39.99
11172;BME280;5642;50.830;12.082;2024-03-22T07:18:51;99690.19;;;16.03;39.96
11172;BME280;5642;50.830;12.082;2024-03-22T07:21:40;99598.81;;;15.82;39.86
11172;BME280;5642;50.830;12.082;2024-03-22T07:24:25;99636.13;;;16.62;39.22
11172;BME280;5642;50.830;12.082;2024-03-22T07:27:10;99676.19;;;17.36;38.75
11172;BME280;5642;50.830;12.082;2024-03-22T07:29:37;99592.22;;;17.06;38.84
11172;BME280;5642;50.830;12.082;2024-03-22T07:32:08;99613.16;;;17.27;39.09
11172;BME280;5642;50.830;12.082;2024-03-22T07:34:39;99613.84;;;17.30;39.20
11172;BME280;5642;50.830;12.082;2024-03-22T07:37:11;99599.09;;;17.26;39.18
11172;BME280;5642;50.830;12.082;2024-03-22T07:39:47;99596.88;;;17.18;39.17
11172;BME280;5642;50.830;12.082;2024-03-22T07:42:30;99590.19;;;16.96;39.60
11172;BME280;5642;50.830;12.082;2024-03-22T07:44:56;99668.09;;;17.39;39.79
11172;BME280;5642;50.830;12.082;2024-03-22T07:47:24;99600.91;;;16.93;39.76
11172;BME280;5642;50.830;12.082;2024-03-22T07:50:12;99666.09;;;17.27;39.88
11172;BME280;5642;50.830;12.082;2024-03-22T07:52:59;99645.16;;;17.06;39.74
11172;BME280;5642;50.830;12.082;2024-03-22T07:55:31;99593.81;;;16.62;39.84
11172;BME280;5642;50.830;12.082;2024-03-22T07:58:01;99636.31;;;16.74;39.99
11172;BME280;5642;50.830;12.082;2024-03-22T08:00:35;99660.91;;;16.76;40.29
11172;BME280;5642;50.830;12.082;2024-03-22T08:03:05;99640.44;;;16.45;40.24
11172;BME280;5642;50.830;12.082;2024-03-22T08:05:32;99662.69;;;16.59;40.27
11172;BME280;5642;50.830;12.082;2024-03-22T08:08:05;99591.34;;;16.07;40.17
11172;BME280;5642;50.830;12.082;2024-03-22T08:10:32;99623.69;;;16.12;40.46
11172;BME280;5642;50.830;12.082;2024-03-22T08:13:00;99565.69;;;15.75;40.51
11172;BME280;5642;50.830;12.082;2024-03-22T08:15:29;99614.81;;;15.96;40.54
11172;BME280;5642;50.830;12.082;2024-03-22T08:18:01;99580.69;;;15.74;40.34
11172;BME280;5642;50.830;12.082;2024-03-22T08:20:30;99569.03;;;15.61;40.57
11172;BME280;5642;50.830;12.082;2024-03-22T08:23:00;99613.66;;;15.84;40.38
11172;BME280;5642;50.830;12.082;2024-03-22T08:25:26;99586.59;;;15.62;40.36
11172;BME280;5642;50.830;12.082;2024-03-22T08:27:53;99617.59;;;15.76;40.27
11172;BME280;5642;50.830;12.082;2024-03-22T08:30:22;99637.88;;;15.92;40.49
11172;BME280;5642;50.830;12.082;2024-03-22T08:32:52;99584.16;;;15.57;40.46
11172;BME280;5642;50.830;12.082;2024-03-22T08:35:20;99658.41;;;16.04;40.43
11172;BME280;5642;50.830;12.082;2024-03-22T08:37:46;99629.94;;;15.92;40.49
11172;BME280;5642;50.830;12.082;2024-03-22T08:40:14;99569.66;;;15.66;40.33
11172;BME280;5642;50.830;12.082;2024-03-22T08:42:54;99601.66;;;15.94;40.48
11172;BME280;5642;50.830;12.082;2024-03-22T08:45:20;99554.75;;;15.82;40.06
11172;BME280;5642;50.830;12.082;2024-03-22T08:47:49;99584.25;;;16.25;40.03
11172;BME280;5642;50.830;12.082;2024-03-22T08:50:15;99569.31;;;16.41;39.80
11172;BME280;5642;50.830;12.082;2024-03-22T08:52:42;99582.25;;;16.96;39.42
11172;BME280;5642;50.830;12.082;2024-03-22T08:55:10;99637.56;;;17.94;39.25
11172;BME280;5642;50.830;12.082;2024-03-22T09:00:08;99588.91;;;19.66;38.37
11172;BME280;5642;50.830;12.082;2024-03-22T09:02:41;99606.97;;;20.52;37.91
11172;BME280;5642;50.830;12.082;2024-03-22T09:05:08;99549.22;;;20.91;37.47
11172;BME280;5642;50.830;12.082;2024-03-22T09:07:42;99533.09;;;21.41;37.39
11172;BME280;5642;50.830;12.082;2024-03-22T09:10:10;99544.53;;;22.13;37.16
11172;BME280;5642;50.830;12.082;2024-03-22T09:12:37;99534.19;;;22.77;37.05
11172;BME280;5642;50.830;12.082;2024-03-22T09:15:05;99559.38;;;24.04;36.55
11172;BME280;5642;50.830;12.082;2024-03-22T09:17:31;99586.38;;;24.84;36.05
11172;BME280;5642;50.830;12.082;2024-03-22T09:19:59;99515.50;;;24.98;36.16
11172;BME280;5642;50.830;12.082;2024-03-22T09:22:30;99509.22;;;25.27;35.92
11172;BME280;5642;50.830;12.082;2024-03-22T09:25:01;99502.19;;;25.36;35.59
11172;BME280;5642;50.830;12.082;2024-03-22T09:27:31;99493.53;;;25.23;36.04
11172;BME280;5642;50.830;12.082;2024-03-22T09:30:07;99496.91;;;25.06;35.97
11172;BME280;5642;50.830;12.082;2024-03-22T09:32:37;99490.47;;;24.78;35.82
11172;BME280;5642;50.830;12.082;2024-03-22T09:35:10;99523.41;;;24.69;36.02
11172;BME280;5642;50.830;12.082;2024-03-22T09:37:41;99489.41;;;24.08;35.99
11172;BME280;5642;50.830;12.082;2024-03-22T09:40:10;99482.00;;;23.59;36.40
11172;BME280;5642;50.830;12.082;2024-03-22T09:42:53;99499.63;;;23.30;36.53
11172;BME280;5642;50.830;12.082;2024-03-22T09:45:28;99558.28;;;23.31;36.53
11172;BME280;5642;50.830;12.082;2024-03-22T09:47:57;99485.84;;;22.69;36.82
11172;BME280;5642;50.830;12.082;2024-03-22T09:50:33;99562.25;;;22.94;36.73
11172;BME280;5642;50.830;12.082;2024-03-22T09:53:05;99504.28;;;22.39;36.62
11172;BME280;5642;50.830;12.082;2024-03-22T09:55:39;99478.56;;;22.04;36.58
11172;BME280;5642;50.830;12.082;2024-03-22T09:58:32;99466.34;;;21.78;36.91
11172;BME280;5642;50.830;12.082;2024-03-22T10:01:05;99536.91;;;22.09;36.89
11172;BME280;5642;50.830;12.082;2024-03-22T10:03:59;99525.63;;;21.81;36.77
11172;BME280;5642;50.830;12.082;2024-03-22T10:06:32;99480.53;;;21.43;36.98
11172;BME280;5642;50.830;12.082;2024-03-22T10:09:02;99476.13;;;21.31;36.86
11172;BME280;5642;50.830;12.082;2024-03-22T10:11:34;99473.59;;;21.30;36.87
11172;BME280;5642;50.830;12.082;2024-03-22T10:14:02;99490.94;;;21.46;36.86
11172;BME280;5642;50.830;12.082;2024-03-22T10:16:33;99449.06;;;21.25;36.61
11172;BME280;5642;50.830;12.082;2024-03-22T10:19:01;99447.41;;;21.11;36.66
11172;BME280;5642;50.830;12.082;2024-03-22T10:21:28;99438.03;;;20.94;36.94
11172;BME280;5642;50.830;12.082;2024-03-22T10:23:55;99503.66;;;21.19;36.78
11172;BME280;5642;50.830;12.082;2024-03-22T10:26:22;99439.88;;;20.81;36.65
11172;BME280;5642;50.830;12.082;2024-03-22T10:28:52;99449.00;;;20.90;36.94
11172;BME280;5642;50.830;12.082;2024-03-22T10:31:22;99430.91;;;20.82;36.58
11172;BME280;5642;50.830;12.082;2024-03-22T10:33:49;99423.91;;;20.81;36.66
11172;BME280;5642;50.830;12.082;2024-03-22T10:36:16;99426.34;;;20.84;36.85
11172;BME280;5642;50.830;12.082;2024-03-22T10:38:54;99498.91;;;21.35;36.59
11172;BME280;5642;50.830;12.082;2024-03-22T10:41:22;99452.34;;;21.17;36.71
11172;BME280;5642;50.830;12.082;2024-03-22T10:43:49;99431.03;;;21.17;36.57
11172;BME280;5642;50.830;12.082;2024-03-22T10:46:29;99463.63;;;21.56;36.47
11172;BME280;5642;50.830;12.082;2024-03-22T10:49:08;99382.09;;;21.18;36.38
11172;BME280;5642;50.830;12.082;2024-03-22T10:51:53;99462.69;;;21.68;36.41
11172;BME280;5642;50.830;12.082;2024-03-22T10:54:39;99377.63;;;21.19;36.27
11172;BME280;5642;50.830;12.082;2024-03-22T10:57:12;99391.69;;;21.32;36.39
11172;BME280;5642;50.830;12.082;2024-03-22T10:59:48;99435.91;;;21.69;36.57
11172;BME280;5642;50.830;12.082;2024-03-22T11:02:20;99387.28;;;21.55;36.35
11172;BME280;5642;50.830;12.082;2024-03-22T11:04:57;99423.69;;;21.89;36.09
11172;BME280;5642;50.830;12.082;2024-03-22T11:07:33;99379.44;;;21.64;35.94
11172;BME280;5642;50.830;12.082;2024-03-22T11:10:01;99416.31;;;21.93;36.09
11172;BME280;5642;50.830;12.082;2024-03-22T11:12:30;99412.34;;;21.98;36.13
11172;BME280;5642;50.830;12.082;2024-03-22T11:15:05;99389.53;;;21.94;36.14
11172;BME280;5642;50.830;12.082;2024-03-22T11:17:38;99340.19;;;21.77;35.98
11172;BME280;5642;50.830;12.082;2024-03-22T11:20:14;99349.06;;;22.11;36.13
11172;BME280;5642;50.830;12.082;2024-03-22T11:22:42;99367.78;;;22.65;35.77
11172;BME280;5642;50.830;12.082;2024-03-22T11:25:10;99395.06;;;23.44;35.88
11172;BME280;5642;50.830;12.082;2024-03-22T11:27:36;99392.63;;;24.03;35.57
11172;BME280;5642;50.830;12.082;2024-03-22T11:30:05;99353.81;;;24.18;35.25
11172;BME280;5642;50.830;12.082;2024-03-22T11:32:33;99384.41;;;24.56;35.42
11172;BME280;5642;50.830;12.082;2024-03-22T11:35:12;99375.38;;;24.57;35.13
11172;BME280;5642;50.830;12.082;2024-03-22T11:37:45;99350.09;;;24.40;35.09
11172;BME280;5642;50.830;12.082;2024-03-22T11:40:14;99360.00;;;24.49;34.92
11172;BME280;5642;50.830;12.082;2024-03-22T11:42:49;99309.28;;;24.17;35.02
11172;BME280;5642;50.830;12.082;2024-03-22T11:45:18;99277.31;;;24.06;35.01
11172;BME280;5642;50.830;12.082;2024-03-22T11:47:46;99287.88;;;24.17;34.88
11172;BME280;5642;50.830;12.082;2024-03-22T11:50:20;99274.81;;;24.24;34.42
11172;BME280;5642;50.830;12.082;2024-03-22T11:52:52;99272.16;;;24.24;34.60
11172;BME280;5642;50.830;12.082;2024-03-22T11:55:20;99261.88;;;24.19;34.69
11172;BME280;5642;50.830;12.082;2024-03-22T12:01:24;99252.16;;;23.78;34.75
11172;BME280;5642;50.830;12.082;2024-03-22T12:04:09;99257.03;;;23.64;34.94
11172;BME280;5642;50.830;12.082;2024-03-22T12:07:03;99271.91;;;23.57;35.20
11172;BME280;5642;50.830;12.082;2024-03-22T12:09:36;99223.53;;;23.09;35.13
11172;BME280;5642;50.830;12.082;2024-03-22T12:12:25;99247.81;;;23.06;35.23
11172;BME280;5642;50.830;12.082;2024-03-22T12:15:19;99220.84;;;22.56;35.21
11172;BME280;5642;50.830;12.082;2024-03-22T12:17:59;99294.34;;;22.71;35.21
11172;BME280;5642;50.830;12.082;2024-03-22T12:20:42;99230.94;;;22.20;35.36
11172;BME280;5642;50.830;12.082;2024-03-22T12:26:09;99316.28;;;22.43;35.54
11172;BME280;5642;50.830;12.082;2024-03-22T12:28:38;99231.22;;;21.84;35.51
11172;BME280;5642;50.830;12.082;2024-03-22T12:31:08;99217.31;;;21.69;35.72
11172;BME280;5642;50.830;12.082;2024-03-22T12:33:36;99228.09;;;21.57;35.63
11172;BME280;5642;50.830;12.082;2024-03-22T12:36:17;99267.38;;;21.66;35.90
11172;BME280;5642;50.830;12.082;2024-03-22T12:39:13;99249.31;;;21.36;35.89
11172;BME280;5642;50.830;12.082;2024-03-22T12:41:42;99226.63;;;21.19;35.68
11172;BME280;5642;50.830;12.082;2024-03-22T12:44:23;99276.78;;;21.47;35.50
11172;BME280;5642;50.830;12.082;2024-03-22T12:47:18;99190.13;;;20.97;35.87
11172;BME280;5642;50.830;12.082;2024-03-22T12:49:49;99265.53;;;21.44;36.17
11172;BME280;5642;50.830;12.082;2024-03-22T12:52:23;99145.84;;;20.74;36.11
11172;BME280;5642;50.830;12.082;2024-03-22T12:57:24;99279.84;;;21.43;35.96
11172;BME280;5642;50.830;12.082;2024-03-22T12:59:58;99208.13;;;20.83;36.07
11172;BME280;5642;50.830;12.082;2024-03-22T13:02:33;99242.69;;;20.95;36.05
11172;BME280;5642;50.830;12.082;2024-03-22T13:05:18;99160.13;;;20.38;36.15
11172;BME280;5642;50.830;12.082;2024-03-22T13:08:12;99262.50;;;20.91;36.33
11172;BME280;5642;50.830;12.082;2024-03-22T13:10:52;99141.63;;;20.13;36.50
11172;BME280;5642;50.830;12.082;2024-03-22T13:13:19;99229.63;;;20.68;36.35
11172;BME280;5642;50.830;12.082;2024-03-22T13:15:49;99154.13;;;20.23;36.55
11172;BME280;5642;50.830;12.082;2024-03-22T13:18:20;99160.03;;;20.27;36.37
11172;BME280;5642;50.830;12.082;2024-03-22T13:20:50;99157.97;;;20.43;36.18
11172;BME280;5642;50.830;12.082;2024-03-22T13:23:17;99176.88;;;20.51;36.18
11172;BME280;5642;50.830;12.082;2024-03-22T13:25:43;99147.31;;;20.43;36.18
11172;BME280;5642;50.830;12.082;2024-03-22T13:28:10;99124.41;;;20.29;36.29
11172;BME280;5642;50.830;12.082;2024-03-22T13:30:41;99124.91;;;20.35;36.28
11172;BME280;5642;50.830;12.082;2024-03-22T13:33:13;99238.53;;;20.91;36.16
11172;BME280;5642;50.830;12.082;2024-03-22T13:35:58;99233.31;;;20.90;36.13